Time;durP1;ratioP1;P1;durP2;ratioP2;P2;SDS_P1;SDS_P2;PMS_P1;PMS_P2;Temp;Humidity;BMP_temperature;BMP_pressure;BME280_temperature;BME280_humidity;BME280_pressure;Samples;Min_cycle;Max_cycle;Signal;HPM_P1;HPM_P2
2021/03/02 00:02:15;;;;;;;;;79.50;58.00;;;;;-0.47;87.98;101677.25;4992309;28;8891;-60
2021/03/02 00:04:46;;;;;;;;;73.50;51.00;;;;;-0.82;89.02;101676.66;4992775;28;8847;-60
2021/03/02 00:07:16;;;;;;;;;81.50;58.25;;;;;-1.26;90.55;101674.13;4989451;28;8852;-60
2021/03/02 00:09:44;;;;;;;;;76.50;52.50;;;;;-0.74;89.85;101667.16;4991003;28;8841;-60
2021/03/02 00:12:26;;;;;;;;;86.25;61.75;;;;;-1.21;90.18;101664.56;4996264;28;8858;-60
2021/03/02 00:14:54;;;;;;;;;83.50;61.00;;;;;-0.87;89.00;101670.41;4996512;28;8836;-60
2021/03/02 00:17:33;;;;;;;;;90.25;63.00;;;;;-0.85;88.42;101668.69;4996977;28;8859;-60
2021/03/02 00:20:09;;;;;;;;;84.25;63.25;;;;;-0.81;87.69;101670.53;4996706;28;9581;-60
2021/03/02 00:23:14;;;;;;;;;92.50;65.75;;;;;-1.57;87.96;101673.53;4996354;28;8836;-60
2021/03/02 00:25:45;;;;;;;;;78.50;59.50;;;;;-1.40;89.29;101678.22;4986477;28;8844;-60
2021/03/02 00:28:13;;;;;;;;;81.25;53.75;;;;;-1.48;89.59;101672.81;4995711;28;8852;-60
2021/03/02 00:30:40;;;;;;;;;86.50;60.50;;;;;-1.01;88.05;101675.44;4997079;28;8848;-60
2021/03/02 00:33:10;;;;;;;;;79.25;57.75;;;;;-1.17;88.13;101665.50;4996749;28;8860;-60
2021/03/02 00:35:37;;;;;;;;;85.00;58.00;;;;;-1.35;88.78;101666.91;4994555;28;10091;-60
2021/03/02 00:38:05;;;;;;;;;75.00;53.75;;;;;-1.29;88.46;101668.81;4996210;28;8836;-60
2021/03/02 00:40:32;;;;;;;;;79.75;57.75;;;;;-0.97;88.77;101665.88;4991866;28;8867;-60
2021/03/02 00:42:58;;;;;;;;;66.75;47.50;;;;;-0.99;88.24;101668.47;4989890;28;8844;-60
2021/03/02 00:45:25;;;;;;;;;73.50;48.00;;;;;-0.92;88.33;101664.19;4996130;28;8884;-60
2021/03/02 00:47:54;;;;;;;;;74.75;51.50;;;;;-1.68;89.17;101659.25;4996805;28;9236;-60
2021/03/02 00:50:26;;;;;;;;;68.50;45.25;;;;;-1.85;91.03;101663.28;4996669;28;8852;-60
2021/03/02 00:52:54;;;;;;;;;68.00;48.25;;;;;-0.69;89.72;101662.81;4996333;28;8836;-60
2021/03/02 00:55:22;;;;;;;;;77.25;54.25;;;;;-1.08;87.07;101659.50;4978822;28;8848;-60
2021/03/02 00:57:49;;;;;;;;;76.50;52.00;;;;;-1.76;89.09;101652.94;4995646;28;8864;-60
2021/03/02 01:00:17;;;;;;;;;71.25;46.75;;;;;-1.38;89.51;101658.06;4995529;28;8848;-60
2021/03/02 01:02:44;;;;;;;;;73.25;52.25;;;;;-1.46;88.64;101654.41;4978749;28;8850;-60
2021/03/02 01:05:12;;;;;;;;;61.00;42.75;;;;;-0.90;89.08;101650.16;4994920;28;8848;-61
2021/03/02 01:07:39;;;;;;;;;67.25;45.00;;;;;-1.01;88.68;101645.56;4996458;28;8840;-60
2021/03/02 01:10:09;;;;;;;;;38.50;34.00;;;;;-1.24;89.87;101643.41;4996309;28;8875;-60
2021/03/02 01:12:36;;;;;;;;;53.75;39.75;;;;;-0.45;88.40;101632.38;4996069;28;8852;-60
2021/03/02 01:15:09;;;;;;;;;65.25;42.50;;;;;-1.00;87.58;101639.41;4995411;28;8878;-60
2021/03/02 01:17:36;;;;;;;;;64.75;47.00;;;;;-1.43;89.54;101630.75;4994974;28;8934;-60
2021/03/02 03:40:40;;;;;;;;;118.75;96.00;;;;;-1.34;89.34;101604.59;4904545;28;9638;-61
2021/03/02 03:43:08;;;;;;;;;71.00;49.50;;;;;-1.63;90.54;101599.66;4993759;28;9546;-60
2021/03/02 03:45:35;;;;;;;;;57.25;41.00;;;;;-1.74;90.71;101598.56;4992505;28;8860;-60
2021/03/02 03:48:02;;;;;;;;;95.75;69.00;;;;;-1.42;91.05;101603.53;4993199;28;8840;-62
2021/03/02 03:50:30;;;;;;;;;82.25;56.50;;;;;-1.54;90.69;101598.94;4993131;28;8824;-61
2021/03/02 03:53:04;;;;;;;;;76.75;55.50;;;;;-1.25;89.71;101594.19;4993566;28;8945;-60
2021/03/02 03:55:44;;;;;;;;;73.50;48.00;;;;;-1.26;89.45;101594.16;4992582;28;8860;-61
2021/03/02 03:58:24;;;;;;;;;39.50;32.25;;;;;-1.28;89.86;101595.91;4992458;28;8852;-61
2021/03/02 04:00:55;;;;;;;;;48.00;31.00;;;;;-1.08;89.72;101598.88;4993058;28;8891;-61
2021/03/02 04:03:28;;;;;;;;;46.50;34.25;;;;;-1.29;90.42;101591.47;4992665;28;8848;-60
2021/03/02 04:05:59;;;;;;;;;51.50;33.75;;;;;-1.32;90.97;101594.94;5008121;28;8859;-60
2021/03/02 04:08:27;;;;;;;;;42.25;33.50;;;;;-1.26;90.87;101602.97;4992425;28;8856;-60
2021/03/02 04:10:54;;;;;;;;;46.75;37.50;;;;;-1.22;91.02;101598.63;4992148;28;8843;-60
2021/03/02 04:13:21;;;;;;;;;45.75;36.00;;;;;-1.10;90.74;101604.13;4992415;28;8852;-60
2021/03/02 04:15:48;;;;;;;;;58.50;41.00;;;;;-1.16;90.26;101599.66;4987474;28;8866;-60
2021/03/02 04:18:18;;;;;;;;;53.50;34.50;;;;;-1.17;90.66;101602.25;4993607;28;8844;-60
2021/03/02 04:20:49;;;;;;;;;47.25;31.00;;;;;-1.12;90.52;101597.94;4993160;28;8850;-60
2021/03/02 04:23:15;;;;;;;;;53.25;25.50;;;;;-1.94;90.65;101606.06;4993655;28;8868;-60
2021/03/02 04:25:43;;;;;;;;;71.25;44.00;;;;;-2.24;91.04;101606.31;4992527;28;8848;-60
2021/03/02 04:28:10;;;;;;;;;64.25;45.50;;;;;-2.03;91.43;101596.25;4993166;28;8832;-60
2021/03/02 04:30:37;;;;;;;;;66.50;44.00;;;;;-1.67;91.57;101596.94;4992799;28;8874;-60
2021/03/02 04:33:05;;;;;;;;;61.25;37.75;;;;;-1.76;91.17;101597.66;4992791;28;8844;-60
2021/03/02 04:35:33;;;;;;;;;69.00;45.25;;;;;-1.71;91.53;101597.72;4992031;28;8833;-60
2021/03/02 04:38:00;;;;;;;;;69.50;45.75;;;;;-1.71;90.88;101597.72;4992335;28;8844;-60
2021/03/02 04:40:27;;;;;;;;;64.75;47.00;;;;;-2.10;91.94;101591.72;4992297;28;8850;-60
2021/03/02 04:42:54;;;;;;;;;64.25;45.75;;;;;-2.78;91.87;101597.22;4992739;28;8939;-60
2021/03/02 04:45:21;;;;;;;;;41.75;19.50;;;;;-2.83;91.78;101597.97;4992392;28;8882;-60
2021/03/02 04:47:48;;;;;;;;;57.00;39.25;;;;;-2.55;92.18;101596.88;4992419;28;8859;-60
2021/03/02 04:50:16;;;;;;;;;67.75;44.50;;;;;-1.98;91.80;101599.84;4992662;28;8844;-60
2021/03/02 04:52:44;;;;;;;;;90.50;65.00;;;;;-2.12;91.79;101593.41;4993016;28;8947;-60
2021/03/02 04:55:12;;;;;;;;;70.50;48.50;;;;;-1.66;91.29;101583.81;4996372;28;8859;-60
2021/03/02 04:57:39;;;;;;;;;66.00;49.00;;;;;-1.78;90.27;101599.38;4996716;28;8886;-60
2021/03/02 05:00:10;;;;;;;;;69.25;47.00;;;;;-2.36;91.33;101595.53;4995128;28;9545;-60
2021/03/02 05:02:38;;;;;;;;;52.00;38.00;;;;;-2.17;92.52;101592.44;4996761;28;9554;-60
2021/03/02 05:05:07;;;;;;;;;59.00;48.75;;;;;-2.67;91.83;101594.84;4996156;28;8942;-60
2021/03/02 05:07:34;;;;;;;;;78.25;56.00;;;;;-3.04;92.80;101599.22;4996377;28;8971;-60
2021/03/02 05:10:02;;;;;;;;;77.50;51.25;;;;;-3.18;93.05;101596.25;4996333;28;8943;-60
2021/03/02 05:12:29;;;;;;;;;79.50;56.00;;;;;-3.20;92.79;101602.31;4990846;28;8883;-60
2021/03/02 05:14:56;;;;;;;;;77.50;51.75;;;;;-2.96;91.91;101597.66;4992018;28;8866;-60
2021/03/02 05:17:23;;;;;;;;;76.00;51.25;;;;;-2.51;91.59;101599.59;4995033;28;8964;-60
2021/03/02 05:19:50;;;;;;;;;56.00;45.25;;;;;-2.61;91.22;101594.97;4994988;28;8857;-60
2021/03/02 05:22:17;;;;;;;;;48.25;38.00;;;;;-2.54;91.51;101596.00;5010106;28;8870;-60
2021/03/02 05:24:44;;;;;;;;;54.25;43.00;;;;;-2.50;91.77;101604.00;4994926;28;8821;-60
2021/03/02 05:27:11;;;;;;;;;66.75;42.25;;;;;-2.32;91.26;101600.00;4993695;28;8964;-60
2021/03/02 05:29:38;;;;;;;;;54.50;42.75;;;;;-2.48;91.64;101604.03;4994911;28;8834;-60
2021/03/02 05:32:06;;;;;;;;;62.00;42.00;;;;;-3.14;91.97;101602.44;4994839;28;8846;-60
2021/03/02 05:34:33;;;;;;;;;58.00;45.50;;;;;-3.14;91.89;101607.72;4995704;28;8973;-60
2021/03/02 05:37:00;;;;;;;;;62.25;51.75;;;;;-2.98;92.06;101598.47;4995830;28;8869;-60
2021/03/02 05:39:27;;;;;;;;;62.75;48.75;;;;;-2.99;90.98;101604.59;5010526;28;8837;-59
2021/03/02 05:41:54;;;;;;;;;63.75;39.00;;;;;-2.81;90.90;101604.16;4991246;28;8885;-60
2021/03/02 05:44:23;;;;;;;;;61.75;45.00;;;;;-2.48;90.29;101607.53;4994687;28;8829;-59
2021/03/02 05:46:50;;;;;;;;;67.50;45.75;;;;;-2.17;89.89;101602.06;4994879;28;8848;-60
2021/03/02 05:49:18;;;;;;;;;71.50;51.25;;;;;-2.03;88.17;101601.53;4995097;28;9703;-60
2021/03/02 05:51:44;;;;;;;;;66.25;45.00;;;;;-2.00;89.57;101596.31;4993440;28;8846;-60
2021/03/02 05:54:15;;;;;;;;;71.75;47.50;;;;;-1.19;87.34;101596.94;4994775;28;8848;-60
2021/03/02 05:56:42;;;;;;;;;75.00;52.50;;;;;-1.03;86.18;101599.84;4995028;28;8880;-60
2021/03/02 05:59:09;;;;;;;;;52.75;42.00;;;;;-1.06;85.85;101597.16;4995132;28;8947;-60
2021/03/02 06:01:37;;;;;;;;;55.75;41.50;;;;;-1.24;87.83;101603.88;4995266;28;8931;-60
2021/03/02 06:04:05;;;;;;;;;57.75;36.50;;;;;-1.14;88.21;101602.28;4978145;28;8836;-60
2021/03/02 06:06:32;;;;;;;;;69.00;52.25;;;;;-1.04;88.30;101608.63;4992981;28;8844;-60
2021/03/02 06:08:59;;;;;;;;;85.25;58.50;;;;;-0.89;89.14;101603.59;4995246;28;8956;-60
2021/03/02 06:11:30;;;;;;;;;60.25;47.00;;;;;-0.75;89.07;101601.16;4995076;28;8848;-60
2021/03/02 06:14:17;;;;;;;;;71.50;45.00;;;;;-0.52;88.34;101602.41;4995412;28;8880;-60
2021/03/02 06:16:56;;;;;;;;;53.00;41.00;;;;;-0.63;88.79;101605.72;4975677;28;8970;-60
2021/03/02 06:19:44;;;;;;;;;50.00;45.00;;;;;-0.30;88.31;101610.63;4975157;28;8863;-60
2021/03/02 06:22:39;;;;;;;;;64.50;45.25;;;;;0.24;86.87;101611.28;4975732;28;8873;-60
2021/03/02 06:25:26;;;;;;;;;66.75;51.75;;;;;0.32;87.41;101614.94;4993379;28;8873;-60
2021/03/02 06:27:54;;;;;;;;;76.00;52.50;;;;;0.72;86.02;101623.28;4994889;28;9559;-60
2021/03/02 06:30:22;;;;;;;;;81.25;60.00;;;;;0.98;86.05;101627.06;4995286;28;9570;-60
2021/03/02 06:32:52;;;;;;;;;81.50;59.25;;;;;1.16;85.42;101626.34;4994931;28;8849;-60
2021/03/02 06:35:43;;;;;;;;;81.75;63.00;;;;;1.25;86.35;101622.88;4994966;28;8854;-60
2021/03/02 06:38:10;;;;;;;;;81.25;57.75;;;;;1.56;85.00;101617.81;4994466;28;9572;-60
2021/03/02 06:40:48;;;;;;;;;85.00;60.25;;;;;1.61;84.89;101631.97;5009817;28;8848;-60
2021/03/02 06:43:33;;;;;;;;;85.00;64.00;;;;;1.85;84.83;101633.88;4994997;28;8962;-60
2021/03/02 06:46:09;;;;;;;;;85.00;60.50;;;;;2.10;84.52;101637.53;4994203;28;8856;-61
2021/03/02 06:48:57;;;;;;;;;89.50;61.50;;;;;2.07;84.39;101643.69;5025867;28;9648;-60
2021/03/02 06:51:28;;;;;;;;;78.00;57.00;;;;;2.39;83.55;101648.25;4994655;28;8832;-60
2021/03/02 06:54:16;;;;;;;;;78.25;49.50;;;;;2.49;82.94;101650.03;4993918;28;8918;-61
2021/03/02 06:56:46;;;;;;;;;71.75;50.75;;;;;2.63;82.24;101652.72;4994039;28;8856;-61
2021/03/02 06:59:14;;;;;;;;;64.25;49.50;;;;;2.99;81.48;101651.91;4993355;28;8863;-61
2021/03/02 07:01:45;;;;;;;;;64.00;50.00;;;;;5.52;74.91;101654.50;4994054;28;9597;-63
2021/03/02 07:04:15;;;;;;;;;60.00;48.50;;;;;10.09;57.21;101659.53;4977794;28;8848;-64
2021/03/02 07:09:48;;;;;;;;;55.67;43.00;;;;;11.55;50.87;101663.13;4992979;28;8856;-64
2021/03/02 07:12:19;;;;;;;;;67.00;50.00;;;;;11.93;49.27;101667.22;4993950;28;8958;-64
2021/03/02 07:14:56;;;;;;;;;66.67;46.67;;;;;9.52;54.86;101662.84;4992986;28;8900;-61
2021/03/02 07:17:51;;;;;;;;;72.33;53.33;;;;;8.41;58.02;101662.72;4993453;28;8964;-61
2021/03/02 07:20:54;;;;;;;;;67.33;52.33;;;;;3.74;75.83;101665.19;4993329;28;8849;-61
2021/03/02 07:23:48;;;;;;;;;62.75;44.00;;;;;4.21;76.27;101663.28;4993757;28;9606;-61
2021/03/02 07:26:17;;;;;;;;;53.75;42.25;;;;;4.59;74.53;101663.13;4976585;28;8853;-61
2021/03/02 07:28:44;;;;;;;;;61.50;45.50;;;;;4.67;76.03;101672.84;4993071;28;8853;-61
2021/03/02 07:31:11;;;;;;;;;59.00;42.00;;;;;4.93;74.87;101667.38;4994240;28;8900;-61
2021/03/02 07:33:42;;;;;;;;;44.50;33.00;;;;;4.90;74.87;101667.38;4993868;28;9831;-61
2021/03/02 07:36:10;;;;;;;;;60.00;43.50;;;;;5.08;74.08;101659.25;4992918;28;8979;-61
2021/03/02 07:38:37;;;;;;;;;55.75;38.50;;;;;5.05;76.36;101662.88;5009092;28;8945;-61
2021/03/02 07:41:06;;;;;;;;;49.25;41.75;;;;;5.09;74.91;101661.06;4977474;28;8842;-61
2021/03/02 07:43:37;;;;;;;;;48.25;35.25;;;;;5.50;74.01;101665.16;4994189;28;8884;-61
2021/03/02 07:46:40;;;;;;;;;51.00;41.67;;;;;5.58;73.87;101658.00;4993959;28;8845;-61
2021/03/02 07:49:24;;;;;;;;;56.75;42.25;;;;;5.78;74.25;101665.78;4993586;28;9606;-61
2021/03/02 07:52:18;;;;;;;;;52.67;42.33;;;;;5.87;73.31;101665.72;4993825;28;8868;-61
2021/03/02 07:54:46;;;;;;;;;62.00;44.00;;;;;6.05;72.66;101666.41;4993696;28;8857;-61
2021/03/02 07:57:15;;;;;;;;;53.67;40.00;;;;;6.09;72.80;101657.50;4993331;28;8869;-61
2021/03/02 07:59:45;;;;;;;;;52.67;41.67;;;;;6.02;72.08;101669.13;4993559;28;8873;-61
2021/03/02 08:02:21;;;;;;;;;60.67;40.00;;;;;6.51;71.03;101652.53;4992927;28;8838;-61
2021/03/02 08:04:50;;;;;;;;;49.67;37.67;;;;;6.74;71.04;101655.78;4994001;28;8876;-61
2021/03/02 08:07:28;;;;;;;;;45.33;35.67;;;;;6.72;69.03;101657.59;4993230;28;8866;-61
2021/03/02 08:10:00;;;;;;;;;44.00;28.33;;;;;6.76;68.20;101659.28;4992704;28;8850;-61
2021/03/02 08:12:37;;;;;;;;;37.67;30.67;;;;;6.88;68.00;101660.03;4993224;28;8841;-61
2021/03/02 08:15:13;;;;;;;;;43.00;33.00;;;;;7.26;67.84;101654.97;4993379;28;8852;-61
2021/03/02 08:17:40;;;;;;;;;34.67;30.33;;;;;6.99;67.06;101644.75;4993211;28;8876;-61
2021/03/02 08:20:10;;;;;;;;;41.67;29.67;;;;;7.07;67.53;101656.19;4993022;28;8942;-61
2021/03/02 08:22:43;;;;;;;;;48.00;30.00;;;;;7.31;67.23;101651.34;4993403;28;8978;-61
2021/03/02 08:25:35;;;;;;;;;43.00;34.67;;;;;7.04;66.06;101643.75;4993380;28;8886;-61
2021/03/02 08:28:04;;;;;;;;;53.67;43.33;;;;;7.73;66.33;101647.06;4995946;28;8856;-61
2021/03/02 08:30:37;;;;;;;;;44.33;37.00;;;;;7.29;66.65;101642.47;5028822;28;8852;-61
2021/03/02 08:33:11;;;;;;;;;57.00;40.33;;;;;7.30;67.91;101638.91;4996951;28;8851;-61
2021/03/02 08:35:41;;;;;;;;;41.33;30.33;;;;;7.40;67.20;101635.19;4997557;28;8840;-61
2021/03/02 08:38:13;;;;;;;;;41.67;27.67;;;;;7.36;66.19;101628.13;4997139;28;8852;-60
2021/03/02 08:40:45;;;;;;;;;43.67;32.67;;;;;7.22;66.64;101626.56;4996836;28;8875;-61
2021/03/02 08:43:23;;;;;;;;;38.67;31.67;;;;;7.51;66.67;101625.19;4997111;28;8937;-61
2021/03/02 08:46:01;;;;;;;;;44.00;28.33;;;;;7.45;66.39;101623.50;4996612;28;9585;-62
2021/03/02 08:48:43;;;;;;;;;37.33;30.67;;;;;7.83;64.81;101624.56;4996941;28;8858;-62
2021/03/02 08:51:12;;;;;;;;;41.33;24.67;;;;;7.91;65.82;101629.78;4996779;28;8836;-62
2021/03/02 08:53:47;;;;;;;;;35.33;24.00;;;;;7.83;65.47;101619.22;4996856;28;8876;-62
2021/03/02 08:56:14;;;;;;;;;40.33;31.00;;;;;8.21;64.77;101625.59;5018181;28;8847;-61
2021/03/02 08:58:48;;;;;;;;;29.00;26.67;;;;;8.34;63.68;101623.56;4977370;28;8884;-61
2021/03/02 09:01:22;;;;;;;;;41.33;36.33;;;;;8.13;63.94;101611.50;4977063;28;8873;-61
2021/03/02 09:03:51;;;;;;;;;42.00;32.67;;;;;8.14;63.58;101619.50;4977158;28;8870;-61
2021/03/02 09:06:26;;;;;;;;;39.33;32.67;;;;;8.18;63.95;101614.09;4977396;28;8854;-62
2021/03/02 09:09:04;;;;;;;;;38.33;33.67;;;;;8.56;63.54;101616.88;4977187;28;8850;-61
2021/03/02 09:11:51;;;;;;;;;42.33;34.33;;;;;8.57;63.54;101618.63;4976799;28;8866;-61
2021/03/02 09:14:20;;;;;;;;;41.67;30.00;;;;;8.44;62.75;101609.09;4978073;28;8953;-61
2021/03/02 09:16:54;;;;;;;;;43.33;35.33;;;;;8.62;62.83;101609.63;4996339;28;8902;-62
2021/03/02 09:19:42;;;;;;;;;47.67;33.33;;;;;8.47;62.66;101611.69;4996276;28;8904;-61
2021/03/02 09:22:11;;;;;;;;;52.67;35.33;;;;;8.65;62.17;101609.53;4995482;28;8865;-62
2021/03/02 09:24:55;;;;;;;;;55.00;38.00;;;;;8.96;62.37;101615.94;4995819;28;8854;-62
2021/03/02 09:27:36;;;;;;;;;42.33;33.00;;;;;9.13;61.33;101611.97;4995996;28;8851;-61
2021/03/02 09:30:08;;;;;;;;;53.00;38.33;;;;;9.01;62.32;101615.84;4996354;28;8841;-62
2021/03/02 09:32:36;;;;;;;;;52.33;40.00;;;;;8.84;62.82;101616.22;5011192;28;8846;-61
2021/03/02 09:35:10;;;;;;;;;55.67;41.00;;;;;9.14;62.38;101611.06;4995913;28;8862;-62
2021/03/02 09:37:39;;;;;;;;;54.00;39.00;;;;;9.30;61.57;101609.75;4995625;28;8904;-62
2021/03/02 09:40:15;;;;;;;;;55.33;40.67;;;;;9.05;62.15;101611.28;4994985;28;8846;-61
2021/03/02 09:42:53;;;;;;;;;54.00;44.00;;;;;9.43;62.85;101611.22;4995152;28;8837;-62
2021/03/02 09:45:21;;;;;;;;;56.67;41.33;;;;;9.40;61.38;101600.56;4995438;28;8859;-62
2021/03/02 09:47:57;;;;;;;;;53.00;41.00;;;;;9.49;62.33;101609.28;4995662;28;8952;-62
2021/03/02 09:50:33;;;;;;;;;56.00;42.33;;;;;9.55;62.62;101604.63;4995532;28;8853;-62
2021/03/02 09:53:00;;;;;;;;;58.00;41.00;;;;;9.83;61.77;101602.09;4995547;28;8842;-61
2021/03/02 09:55:32;;;;;;;;;56.00;41.33;;;;;10.12;61.05;101608.44;5010892;28;8862;-61
2021/03/02 09:58:14;;;;;;;;;56.33;41.33;;;;;10.25;61.68;101607.16;4995353;28;8994;-62
2021/03/02 10:00:59;;;;;;;;;60.67;46.00;;;;;10.01;61.59;101602.50;4995372;28;8853;-62
2021/03/02 10:03:38;;;;;;;;;42.67;37.00;;;;;10.15;60.66;101602.09;4995580;28;8852;-62
2021/03/02 10:06:07;;;;;;;;;56.33;42.00;;;;;10.06;60.76;101605.94;4995068;28;8858;-62
2021/03/02 10:08:37;;;;;;;;;51.00;40.33;;;;;10.04;61.33;101614.03;4995472;28;8951;-61
2021/03/02 10:11:11;;;;;;;;;60.33;44.67;;;;;10.36;60.19;101603.31;4995210;28;8936;-62
2021/03/02 10:14:02;;;;;;;;;57.67;39.33;;;;;10.59;59.06;101598.13;4995217;28;8884;-62
2021/03/02 10:16:41;;;;;;;;;56.33;42.67;;;;;10.49;59.07;101599.31;4995270;28;8856;-61
2021/03/02 10:19:16;;;;;;;;;51.33;39.33;;;;;11.06;59.44;101605.56;4995380;28;8966;-62
2021/03/02 10:21:50;;;;;;;;;57.33;42.33;;;;;10.87;58.20;101599.91;4995138;28;8844;-61
2021/03/02 10:24:44;;;;;;;;;47.00;37.67;;;;;11.47;57.37;101593.44;4995289;28;8863;-62
2021/03/02 10:27:17;;;;;;;;;49.67;40.00;;;;;11.09;57.96;101592.06;4994656;28;8844;-62
2021/03/02 10:29:46;;;;;;;;;56.67;41.00;;;;;11.20;59.21;101596.13;4994880;28;8871;-61
2021/03/02 10:32:13;;;;;;;;;46.00;39.33;;;;;11.25;56.99;101585.22;4994862;28;8866;-62
2021/03/02 10:34:43;;;;;;;;;45.67;37.33;;;;;11.42;56.83;101588.19;5010347;28;8832;-62
2021/03/02 10:37:11;;;;;;;;;50.33;38.33;;;;;11.66;57.18;101582.91;5025732;28;8860;-62
2021/03/02 10:39:41;;;;;;;;;53.33;40.33;;;;;11.30;57.24;101577.03;4994594;28;8989;-62
2021/03/02 10:42:09;;;;;;;;;48.00;39.67;;;;;11.51;56.25;101576.28;4994929;28;8844;-62
2021/03/02 10:44:36;;;;;;;;;46.67;37.33;;;;;11.35;56.08;101572.38;4994590;28;8970;-62
2021/03/02 10:47:06;;;;;;;;;48.67;36.00;;;;;11.48;56.13;101572.78;4994796;28;8836;-62
2021/03/02 10:49:33;;;;;;;;;48.00;38.00;;;;;11.76;55.96;101572.69;4993632;28;8870;-62
2021/03/02 10:52:00;;;;;;;;;46.00;37.67;;;;;12.17;55.43;101570.31;4992701;28;8868;-62
2021/03/02 10:54:29;;;;;;;;;37.67;29.67;;;;;11.72;55.26;101565.69;4994937;28;11640;-63
2021/03/02 10:56:57;;;;;;;;;51.33;37.67;;;;;11.99;54.86;101575.47;4994001;28;11671;-63
2021/03/02 10:59:23;;;;;;;;;45.67;35.33;;;;;12.25;54.32;101573.59;4994166;28;11638;-63
2021/03/02 11:01:50;;;;;;;;;47.33;34.67;;;;;11.95;53.52;101565.72;4994293;28;11610;-62
2021/03/02 11:04:17;;;;;;;;;51.00;38.67;;;;;12.18;53.72;101564.88;4994093;28;11605;-62
2021/03/02 11:06:44;;;;;;;;;41.33;36.67;;;;;12.15;54.76;101559.59;4993106;28;11644;-64
2021/03/02 11:09:13;;;;;;;;;54.00;39.00;;;;;12.48;53.80;101562.81;4991508;28;11619;-63
2021/03/02 11:11:40;;;;;;;;;41.50;35.25;;;;;12.14;52.75;101551.56;4987341;28;11627;-63
2021/03/02 11:14:07;;;;;;;;;50.33;39.00;;;;;11.95;54.40;101552.25;4992379;28;11633;-62
2021/03/02 11:16:34;;;;;;;;;48.67;38.67;;;;;12.39;53.44;101549.69;4993355;28;11605;-64
2021/03/02 11:19:01;;;;;;;;;45.67;35.67;;;;;12.63;52.96;101547.84;4990546;28;11614;-63
2021/03/02 11:21:28;;;;;;;;;47.00;35.33;;;;;12.57;52.70;101542.69;4993347;28;11684;-64
2021/03/02 11:23:55;;;;;;;;;35.75;30.00;;;;;12.30;51.69;101533.91;4992454;28;11704;-63
2021/03/02 11:26:22;;;;;;;;;40.00;35.00;;;;;12.45;51.50;101535.09;4993044;28;11652;-63
2021/03/02 11:28:49;;;;;;;;;40.00;36.50;;;;;12.77;52.25;101522.13;4993237;28;11717;-63
2021/03/02 11:31:16;;;;;;;;;41.25;29.00;;;;;13.01;51.98;101536.44;4992834;28;11646;-63
2021/03/02 11:33:44;;;;;;;;;43.50;36.75;;;;;12.49;51.54;101534.06;4992635;28;12341;-62
2021/03/02 11:36:11;;;;;;;;;52.00;39.25;;;;;12.88;51.83;101520.78;4993283;28;11617;-63
2021/03/02 11:38:39;;;;;;;;;44.25;37.00;;;;;12.89;52.54;101521.63;4993286;28;11631;-63
2021/03/02 11:41:06;;;;;;;;;49.25;38.00;;;;;13.03;51.82;101515.66;4993637;28;11600;-64
2021/03/02 11:44:35;;;;;;;;;46.25;35.50;;;;;12.83;51.52;101503.03;4992567;28;11599;-63
2021/03/02 11:47:02;;;;;;;;;50.75;36.50;;;;;12.74;51.43;101507.88;4992050;28;11595;-63
2021/03/02 11:49:29;;;;;;;;;41.00;31.75;;;;;13.09;50.57;101504.63;4991516;28;11677;-63
2021/03/02 11:52:51;;;;;;;;;48.75;35.00;;;;;12.94;50.22;101503.44;4988693;28;11651;-63
2021/03/02 11:55:20;;;;;;;;;33.25;27.75;;;;;12.78;48.34;101510.44;4983473;28;11639;-63
2021/03/02 11:57:48;;;;;;;;;38.50;28.75;;;;;13.07;47.87;101514.59;4992271;28;11596;-63
2021/03/02 12:00:18;;;;;;;;;34.00;28.50;;;;;13.45;48.96;101501.28;4993077;28;11593;-63
2021/03/02 12:02:47;;;;;;;;;32.25;29.25;;;;;13.24;47.36;101487.75;4994984;28;12342;-63
2021/03/02 12:05:18;;;;;;;;;35.00;29.25;;;;;12.99;47.26;101495.19;4996353;28;11591;-63
2021/03/02 12:07:46;;;;;;;;;42.00;35.00;;;;;13.19;49.26;101489.78;4988055;28;11721;-63
2021/03/02 12:10:15;;;;;;;;;41.50;34.25;;;;;13.32;48.93;101482.97;4991586;28;11671;-64
2021/03/02 12:12:44;;;;;;;;;33.50;25.75;;;;;13.18;49.24;101479.94;4996933;28;11688;-63
2021/03/02 12:15:13;;;;;;;;;50.00;35.00;;;;;13.25;47.95;101481.44;4996117;28;11614;-63
2021/03/02 12:17:40;;;;;;;;;43.25;36.50;;;;;13.71;47.72;101473.13;4997187;28;11638;-63
2021/03/02 12:20:09;;;;;;;;;31.00;25.00;;;;;13.42;48.54;101477.16;4994008;28;11598;-63
2021/03/02 12:22:38;;;;;;;;;29.75;27.50;;;;;13.08;46.91;101467.81;4993992;28;11591;-63
2021/03/02 12:25:07;;;;;;;;;38.25;26.50;;;;;13.66;47.00;101470.63;4993628;28;11619;-64
2021/03/02 12:27:36;;;;;;;;;34.25;28.50;;;;;13.90;44.75;101474.03;4994816;28;11670;-63
2021/03/02 12:30:08;;;;;;;;;37.50;30.75;;;;;13.35;46.90;101460.38;4996451;28;12347;-63
2021/03/02 12:32:36;;;;;;;;;42.25;32.00;;;;;13.48;46.97;101456.16;4993931;28;11681;-63
2021/03/02 12:35:06;;;;;;;;;32.50;24.50;;;;;13.84;45.38;101453.56;4995877;28;11750;-63
2021/03/02 12:37:34;;;;;;;;;35.50;29.50;;;;;13.58;45.66;101454.78;4995852;28;11596;-64
2021/03/02 12:40:01;;;;;;;;;31.25;25.75;;;;;14.03;45.60;101456.31;4994852;28;12450;-63
2021/03/02 12:42:27;;;;;;;;;35.25;25.50;;;;;13.69;45.73;101448.91;4996994;28;11590;-63
2021/03/02 12:44:54;;;;;;;;;26.50;24.25;;;;;13.54;45.46;101455.88;4996456;28;11609;-63
2021/03/02 12:47:21;;;;;;;;;30.75;26.50;;;;;13.68;46.17;101452.53;4995269;28;11606;-63
2021/03/02 12:49:49;;;;;;;;;39.75;33.00;;;;;14.03;45.32;101452.69;4996127;28;11614;-63
2021/03/02 12:52:15;;;;;;;;;31.25;26.75;;;;;13.98;46.09;101449.34;4995415;28;11703;-64
2021/03/02 12:54:43;;;;;;;;;35.50;29.00;;;;;13.81;46.10;101448.31;4995893;28;11683;-63
2021/03/02 12:57:10;;;;;;;;;32.50;25.75;;;;;14.04;45.55;101443.69;4995853;28;11731;-63
2021/03/02 12:59:37;;;;;;;;;28.25;24.00;;;;;13.81;43.79;101448.31;4995711;28;11611;-63
2021/03/02 13:02:09;;;;;;;;;26.00;19.25;;;;;13.80;43.86;101451.97;4994573;28;12388;-64
2021/03/02 13:04:37;;;;;;;;;27.25;24.25;;;;;13.89;43.26;101444.41;4994997;28;11610;-64
2021/03/02 13:07:05;;;;;;;;;26.00;21.25;;;;;13.91;42.90;101443.38;4993840;28;11576;-63
2021/03/02 13:09:32;;;;;;;;;25.75;21.50;;;;;13.98;42.77;101449.34;4978358;28;11600;-63
2021/03/02 13:12:00;;;;;;;;;27.50;21.25;;;;;14.22;42.76;101444.63;4976706;28;11651;-63
2021/03/02 13:14:28;;;;;;;;;27.50;24.25;;;;;14.01;43.71;101450.09;4986728;28;11624;-63
2021/03/02 13:16:55;;;;;;;;;25.00;20.50;;;;;13.91;42.62;101446.06;4991256;28;11581;-63
2021/03/02 13:19:23;;;;;;;;;25.50;21.00;;;;;14.11;42.39;101439.72;4994128;28;11608;-63
2021/03/02 13:22:05;;;;;;;;;21.50;17.00;;;;;14.34;40.83;101440.44;4976668;28;11661;-63
2021/03/02 13:24:32;;;;;;;;;28.00;22.00;;;;;13.79;42.58;101439.41;4990091;28;12349;-63
2021/03/02 13:27:02;;;;;;;;;22.00;21.25;;;;;14.06;41.92;101439.09;4994931;28;11617;-63
2021/03/02 13:29:32;;;;;;;;;23.00;18.50;;;;;14.06;42.26;101433.69;4994826;28;11600;-66
2021/03/02 13:32:02;;;;;;;;;29.75;22.75;;;;;14.02;41.49;101441.03;4994581;28;11602;-63
2021/03/02 13:34:33;;;;;;;;;29.75;23.25;;;;;13.98;41.79;101427.75;5011084;28;11596;-64
2021/03/02 13:37:00;;;;;;;;;27.50;23.00;;;;;14.21;41.64;101424.81;5010475;28;11620;-63
2021/03/02 13:39:30;;;;;;;;;20.25;17.00;;;;;13.94;41.05;101426.16;4993953;28;11645;-63
2021/03/02 13:41:57;;;;;;;;;21.25;17.50;;;;;14.05;39.34;101430.06;4994711;28;11617;-62
2021/03/02 13:44:24;;;;;;;;;17.50;15.25;;;;;13.82;39.06;101422.19;5010104;28;12367;-63
2021/03/02 13:46:53;;;;;;;;;21.25;17.25;;;;;13.96;40.39;101424.25;4994057;28;11582;-63
2021/03/02 13:49:38;;;;;;;;;23.25;15.50;;;;;14.26;39.63;101419.19;4994886;28;11732;-63
2021/03/02 13:52:29;;;;;;;;;23.00;19.25;;;;;13.85;40.62;101422.06;4993110;28;11592;-63
2021/03/02 13:54:58;;;;;;;;;20.75;17.75;;;;;14.14;41.51;101417.97;4994804;28;11596;-62
2021/03/02 13:57:27;;;;;;;;;19.75;18.00;;;;;13.80;39.38;101422.28;4994300;28;11613;-63
2021/03/02 13:59:57;;;;;;;;;24.00;16.50;;;;;14.15;39.61;101408.03;4993604;28;11587;-64
2021/03/02 14:02:26;;;;;;;;;24.00;18.00;;;;;14.13;39.30;101400.00;4992902;28;11084;-63